Time;durP1;ratioP1;P1;durP2;ratioP2;P2;SDS_P1;SDS_P2;PMS_P1;PMS_P2;Temp;Humidity;BMP_temperature;BMP_pressure;BME280_temperature;BME280_humidity;BME280_pressure;Samples;Min_cycle;Max_cycle;Signal;HPM_P1;HPM_P2
2022/03/09 00:00:34;;;;;;;;;;;9.80;99.90;;;;;;5046056;28;20049;-62
2022/03/09 00:03:00;;;;;;;0.00;0.00;;;9.80;99.90;;;;;;5043924;28;20405;-63
2022/03/09 00:05:26;;;;;;;0.00;0.00;;;9.80;99.90;;;;;;5044195;28;20033;-63
2022/03/09 00:07:52;;;;;;;0.00;0.00;;;9.80;99.90;;;;;;5041654;28;20071;-63
2022/03/09 00:10:17;;;;;;;0.00;0.00;;;9.80;99.90;;;;;;5035539;28;20030;-63
2022/03/09 00:12:43;;;;;;;0.00;0.00;;;9.70;99.90;;;;;;5035934;28;20094;-62
2022/03/09 00:15:09;;;;;;;0.00;0.00;;;9.70;99.90;;;;;;5046194;28;20059;-62
2022/03/09 00:17:35;;;;;;;0.00;0.00;;;9.60;99.90;;;;;;5050285;28;20024;-61
2022/03/09 00:20:01;;;;;;;0.00;0.00;;;9.60;99.90;;;;;;5042397;28;20033;-61
2022/03/09 00:22:27;;;;;;;;;;;9.60;99.90;;;;;;5043669;28;20159;-60
2022/03/09 00:24:52;;;;;;;0.00;0.00;;;9.60;99.90;;;;;;5041493;28;19911;-63
2022/03/09 00:27:18;;;;;;;0.00;0.00;;;9.60;99.90;;;;;;5046944;28;20416;-62
2022/03/09 00:29:44;;;;;;;0.00;0.00;;;9.60;99.90;;;;;;5012276;28;20029;-63
2022/03/09 00:32:11;;;;;;;0.00;0.00;;;9.70;99.90;;;;;;5044319;28;20028;-62
2022/03/09 00:34:37;;;;;;;0.00;0.00;;;9.70;99.90;;;;;;5046830;28;20438;-63
2022/03/09 00:37:03;;;;;;;0.00;0.00;;;9.60;99.90;;;;;;5045128;28;20128;-61
2022/03/09 00:39:29;;;;;;;0.00;0.00;;;9.60;99.90;;;;;;5043158;28;20068;-62
2022/03/09 00:41:54;;;;;;;0.00;0.00;;;9.50;99.90;;;;;;5043515;28;20085;-62
2022/03/09 00:44:20;;;;;;;0.00;0.00;;;9.40;99.90;;;;;;5042920;28;20032;-62
2022/03/09 00:46:46;;;;;;;0.00;0.00;;;9.50;99.90;;;;;;5045205;28;20033;-63
2022/03/09 00:49:11;;;;;;;0.00;0.00;;;9.60;99.90;;;;;;5043444;28;20152;-62
2022/03/09 00:51:37;;;;;;;0.00;0.00;;;9.60;99.90;;;;;;5044355;28;20052;-61
2022/03/09 00:54:03;;;;;;;0.00;0.00;;;9.60;99.90;;;;;;5047606;28;20025;-63
2022/03/09 00:56:28;;;;;;;0.00;0.00;;;9.70;99.90;;;;;;5044916;28;20057;-61
2022/03/09 00:58:54;;;;;;;0.00;0.00;;;9.60;99.90;;;;;;5045579;28;20029;-62
2022/03/09 01:01:20;;;;;;;0.00;0.00;;;9.60;99.90;;;;;;5025544;28;20066;-62
2022/03/09 01:03:48;;;;;;;0.00;0.00;;;9.50;99.90;;;;;;5045216;28;20110;-61
2022/03/09 01:06:15;;;;;;;0.00;0.00;;;9.50;99.90;;;;;;5044156;28;20066;-62
2022/03/09 01:08:41;;;;;;;0.00;0.00;;;9.50;99.90;;;;;;5042402;28;20021;-63
2022/03/09 01:11:07;;;;;;;0.00;0.00;;;9.50;99.90;;;;;;5045321;28;20387;-63
2022/03/09 01:13:34;;;;;;;0.00;0.00;;;9.50;99.90;;;;;;5047665;28;20033;-63
2022/03/09 01:15:59;;;;;;;0.00;0.00;;;9.40;99.90;;;;;;5040834;28;20391;-62
2022/03/09 01:18:25;;;;;;;0.00;0.00;;;9.30;99.90;;;;;;5025906;28;20022;-62
2022/03/09 01:20:54;;;;;;;0.00;0.00;;;9.20;99.90;;;;;;5043961;28;20041;-62
2022/03/09 01:23:20;;;;;;;0.00;0.00;;;9.10;99.90;;;;;;5045048;28;20029;-63
2022/03/09 01:25:45;;;;;;;0.00;0.00;;;9.00;99.90;;;;;;5032501;28;20087;-61
2022/03/09 01:28:11;;;;;;;0.00;0.00;;;9.00;99.90;;;;;;5044232;28;20060;-61
2022/03/09 01:30:37;;;;;;;0.00;0.00;;;9.00;99.90;;;;;;5045696;28;20387;-62
2022/03/09 01:33:02;;;;;;;0.00;0.00;;;8.90;99.90;;;;;;5045232;28;20122;-62
2022/03/09 01:35:28;;;;;;;0.00;0.00;;;8.90;99.90;;;;;;5054263;28;20037;-62
2022/03/09 01:37:54;;;;;;;0.00;0.00;;;8.80;99.90;;;;;;5063325;28;20025;-61
2022/03/09 01:40:19;;;;;;;0.00;0.00;;;8.80;99.90;;;;;;5065135;28;20028;-63
2022/03/09 01:42:45;;;;;;;0.00;0.00;;;8.70;99.90;;;;;;5062761;28;20391;-62
2022/03/09 01:45:13;;;;;;;0.00;0.00;;;8.70;99.90;;;;;;5060150;28;20030;-63
2022/03/09 01:47:38;;;;;;;0.00;0.00;;;8.80;99.90;;;;;;5063479;28;20051;-63
2022/03/09 01:50:08;;;;;;;0.00;0.00;;;8.80;99.90;;;;;;5057369;28;20033;-61
2022/03/09 01:52:34;;;;;;;0.00;0.00;;;8.70;99.90;;;;;;5051610;28;20075;-62
2022/03/09 01:55:00;;;;;;;0.00;0.00;;;8.60;99.90;;;;;;5056866;28;20029;-62
2022/03/09 01:57:29;;;;;;;0.00;0.00;;;8.70;99.90;;;;;;5064094;28;20487;-60
2022/03/09 01:59:54;;;;;;;0.00;0.00;;;8.60;99.90;;;;;;5057403;28;20113;-62
2022/03/09 02:02:20;;;;;;;0.00;0.00;;;8.60;99.90;;;;;;5061540;28;20515;-62
2022/03/09 02:04:46;;;;;;;0.00;0.00;;;8.60;99.90;;;;;;5059799;28;20057;-62
2022/03/09 02:07:12;;;;;;;;;;;8.60;99.90;;;;;;5066939;28;20071;-62
2022/03/09 02:09:47;;;;;;;0.00;0.00;;;8.60;99.90;;;;;;5071180;28;19908;-62
2022/03/09 02:12:18;;;;;;;0.00;0.00;;;8.60;99.90;;;;;;5071836;28;20033;-62
2022/03/09 02:14:49;;;;;;;0.00;0.00;;;8.50;99.90;;;;;;5069145;28;20404;-61
2022/03/09 02:17:19;;;;;;;0.00;0.00;;;8.50;99.90;;;;;;5068791;28;20118;-62
2022/03/09 02:19:49;;;;;;;0.00;0.00;;;8.40;99.90;;;;;;5072988;28;20131;-63
2022/03/09 02:22:34;;;;;;;0.00;0.00;;;8.30;99.90;;;;;;5073109;28;20088;-62
2022/03/09 02:25:02;;;;;;;0.00;0.00;;;8.10;99.90;;;;;;5070932;28;20036;-63
2022/03/09 02:27:28;;;;;;;0.00;0.00;;;8.30;99.90;;;;;;5064456;28;20044;-63
2022/03/09 02:29:55;;;;;;;0.00;0.00;;;8.30;99.90;;;;;;5069326;28;20025;-62
2022/03/09 02:32:21;;;;;;;0.00;0.00;;;8.20;99.90;;;;;;5071449;28;20025;-62
2022/03/09 02:34:48;;;;;;;0.00;0.00;;;8.10;99.90;;;;;;5054749;28;20057;-63
2022/03/09 02:37:14;;;;;;;0.00;0.00;;;8.20;99.90;;;;;;5051194;28;20101;-63
2022/03/09 02:39:40;;;;;;;0.00;0.00;;;8.20;99.90;;;;;;5051346;28;20044;-62
2022/03/09 02:42:06;;;;;;;0.00;0.00;;;8.10;99.90;;;;;;5049988;28;20033;-63
2022/03/09 02:44:32;;;;;;;;;;;8.20;99.90;;;;;;5046015;28;20033;-62
2022/03/09 02:46:59;;;;;;;0.00;0.00;;;8.20;99.90;;;;;;5049280;28;19947;-63
2022/03/09 02:49:25;;;;;;;0.00;0.00;;;8.20;99.90;;;;;;5036734;28;20045;-62
2022/03/09 02:51:51;;;;;;;0.00;0.00;;;8.10;99.90;;;;;;5050929;28;20454;-63
2022/03/09 02:54:16;;;;;;;0.00;0.00;;;8.10;99.90;;;;;;5048188;28;20021;-62
2022/03/09 02:56:42;;;;;;;0.00;0.00;;;8.10;99.90;;;;;;5036698;28;20029;-62
2022/03/09 02:59:08;;;;;;;0.00;0.00;;;8.10;99.90;;;;;;5032704;28;20034;-62
2022/03/09 03:01:34;;;;;;;0.00;0.00;;;8.00;99.90;;;;;;5048586;28;20032;-62
2022/03/09 03:04:00;;;;;;;;;;;8.00;99.90;;;;;;5049072;28;20025;-62
2022/03/09 03:06:26;;;;;;;0.00;0.00;;;8.00;99.90;;;;;;5051394;28;19920;-61
2022/03/09 03:08:52;;;;;;;0.00;0.00;;;8.00;99.90;;;;;;5038342;28;20065;-63
2022/03/09 03:11:17;;;;;;;0.00;0.00;;;8.00;99.90;;;;;;5045098;28;20041;-63
2022/03/09 03:13:44;;;;;;;0.00;0.00;;;8.00;99.90;;;;;;5045543;28;20294;-62
2022/03/09 03:16:11;;;;;;;0.00;0.00;;;8.00;99.90;;;;;;5043940;28;20057;-62
2022/03/09 03:18:37;;;;;;;0.00;0.00;;;8.00;99.90;;;;;;5031953;28;20059;-62
2022/03/09 03:21:04;;;;;;;0.00;0.00;;;8.00;99.90;;;;;;5045588;28;20028;-62
2022/03/09 03:23:31;;;;;;;0.00;0.00;;;8.10;99.90;;;;;;5046227;28;20053;-62
2022/03/09 03:25:58;;;;;;;0.00;0.00;;;8.10;99.90;;;;;;5043319;28;20034;-62
2022/03/09 03:28:24;;;;;;;0.00;0.00;;;8.20;99.90;;;;;;5042816;28;20049;-62
2022/03/09 03:30:51;;;;;;;0.00;0.00;;;8.30;99.90;;;;;;5044453;28;20116;-62
2022/03/09 03:33:18;;;;;;;0.00;0.00;;;8.30;99.90;;;;;;5049210;28;20041;-62
2022/03/09 03:35:45;;;;;;;0.00;0.00;;;8.40;99.90;;;;;;5063213;28;20025;-64
2022/03/09 03:38:11;;;;;;;0.00;0.00;;;8.50;99.90;;;;;;5058336;28;20044;-62
2022/03/09 03:40:37;;;;;;;0.00;0.00;;;8.50;99.90;;;;;;5075936;28;20096;-63
2022/03/09 03:43:04;;;;;;;0.00;0.00;;;8.50;99.90;;;;;;5074600;28;20025;-63
2022/03/09 03:45:30;;;;;;;0.00;0.00;;;8.50;99.90;;;;;;5068597;28;20038;-61
2022/03/09 03:47:56;;;;;;;0.00;0.00;;;8.60;99.90;;;;;;5058682;28;20049;-62
2022/03/09 03:50:22;;;;;;;0.00;0.00;;;8.60;99.90;;;;;;5064873;28;20046;-63
2022/03/09 03:52:48;;;;;;;0.00;0.00;;;8.60;99.90;;;;;;5070320;28;20025;-65
2022/03/09 03:55:14;;;;;;;;;;;8.50;99.90;;;;;;5061948;28;20091;-62
2022/03/09 03:57:40;;;;;;;0.00;0.00;;;8.50;99.90;;;;;;5063142;28;19909;-63
2022/03/09 04:00:07;;;;;;;0.00;0.00;;;8.50;99.90;;;;;;5062514;28;20093;-62
2022/03/09 04:02:33;;;;;;;0.00;0.00;;;8.40;99.90;;;;;;5062639;28;20466;-61
2022/03/09 04:04:58;;;;;;;0.00;0.00;;;8.40;99.90;;;;;;5060861;28;20048;-61
2022/03/09 04:07:24;;;;;;;0.00;0.00;;;8.40;99.90;;;;;;5063148;28;20387;-63
2022/03/09 04:09:50;;;;;;;0.00;0.00;;;8.30;99.90;;;;;;5062964;28;20046;-62
2022/03/09 04:12:16;;;;;;;0.00;0.00;;;8.30;99.90;;;;;;5058227;28;20036;-62
2022/03/09 04:14:42;;;;;;;0.00;0.00;;;8.30;99.90;;;;;;5061595;28;20029;-61
2022/03/09 04:17:07;;;;;;;0.00;0.00;;;8.20;99.90;;;;;;5046556;28;20067;-62
2022/03/09 04:19:33;;;;;;;0.00;0.00;;;8.10;99.90;;;;;;5074446;28;20028;-61
2022/03/09 04:21:59;;;;;;;0.00;0.00;;;8.10;99.90;;;;;;5064023;28;20067;-64
2022/03/09 04:24:25;;;;;;;0.00;0.00;;;8.10;99.90;;;;;;5060026;28;20020;-61
2022/03/09 04:26:51;;;;;;;0.00;0.00;;;8.00;99.90;;;;;;5070870;28;20039;-62
2022/03/09 04:29:16;;;;;;;;;;;8.10;99.90;;;;;;5058917;28;20034;-62
2022/03/09 04:31:42;;;;;;;0.00;0.00;;;8.00;99.90;;;;;;5058193;28;20307;-62
2022/03/09 04:34:09;;;;;;;0.00;0.00;;;8.10;99.90;;;;;;5046674;28;20049;-62
2022/03/09 04:36:35;;;;;;;0.00;0.00;;;8.10;99.90;;;;;;5041567;28;20041;-61
2022/03/09 04:39:01;;;;;;;0.00;0.00;;;8.10;99.90;;;;;;5044339;28;20018;-61
2022/03/09 04:41:27;;;;;;;0.00;0.00;;;8.10;99.90;;;;;;5046416;28;20469;-61
2022/03/09 04:43:52;;;;;;;0.00;0.00;;;8.10;99.90;;;;;;5043244;28;20036;-61
2022/03/09 04:46:18;;;;;;;0.00;0.00;;;8.00;99.90;;;;;;5046593;28;20430;-62
2022/03/09 04:48:44;;;;;;;0.00;0.00;;;8.00;99.90;;;;;;5041338;28;20032;-62
2022/03/09 04:51:10;;;;;;;0.00;0.00;;;8.00;99.90;;;;;;5040462;28;20037;-62
2022/03/09 04:53:36;;;;;;;0.00;0.00;;;8.00;99.90;;;;;;5041407;28;20071;-62
2022/03/09 04:56:03;;;;;;;0.00;0.00;;;8.00;99.90;;;;;;5043121;28;20434;-63
2022/03/09 04:58:28;;;;;;;0.00;0.00;;;7.90;99.90;;;;;;5026483;28;20041;-62
2022/03/09 05:00:54;;;;;;;0.00;0.00;;;7.90;99.90;;;;;;5040947;28;20033;-62
2022/03/09 05:03:20;;;;;;;0.00;0.00;;;8.00;99.90;;;;;;5039878;28;20033;-61
2022/03/09 05:05:45;;;;;;;0.00;0.00;;;8.00;99.90;;;;;;5035521;28;20025;-62
2022/03/09 05:08:11;;;;;;;0.00;0.00;;;8.00;99.90;;;;;;5031464;28;20430;-62
2022/03/09 05:10:38;;;;;;;0.00;0.00;;;8.00;99.90;;;;;;5034575;28;20423;-63
2022/03/09 05:13:04;;;;;;;0.00;0.00;;;8.00;99.90;;;;;;5028356;28;20045;-62
2022/03/09 05:15:31;;;;;;;0.00;0.00;;;8.00;99.90;;;;;;5027122;28;20100;-61
2022/03/09 05:17:57;;;;;;;0.00;0.00;;;8.10;99.90;;;;;;5041128;28;20026;-62
2022/03/09 05:20:23;;;;;;;0.00;0.00;;;8.00;99.90;;;;;;5039039;28;20047;-64
2022/03/09 05:22:50;;;;;;;0.00;0.00;;;8.00;99.90;;;;;;5042015;28;20495;-61
2022/03/09 05:25:16;;;;;;;0.00;0.00;;;8.00;99.90;;;;;;5042415;28;20104;-61
2022/03/09 05:27:42;;;;;;;;;;;8.00;99.90;;;;;;5037479;28;20045;-61
2022/03/09 05:30:09;;;;;;;0.00;0.00;;;8.00;99.90;;;;;;5027228;28;20294;-61
2022/03/09 05:32:36;;;;;;;0.00;0.00;;;8.10;99.90;;;;;;5039742;28;20028;-61
2022/03/09 05:35:04;;;;;;;0.00;0.00;;;8.00;99.90;;;;;;5048664;28;20069;-62
2022/03/09 05:37:39;;;;;;;0.00;0.00;;;8.00;99.90;;;;;;5067660;28;20033;-62
2022/03/09 05:40:06;;;;;;;0.00;0.00;;;8.00;99.90;;;;;;5067368;28;20455;-61
2022/03/09 05:42:32;;;;;;;0.00;0.00;;;8.00;99.90;;;;;;5055773;28;20030;-62
2022/03/09 05:44:57;;;;;;;0.00;0.00;;;8.00;99.90;;;;;;5044135;28;20025;-62
2022/03/09 05:47:23;;;;;;;0.00;0.00;;;7.90;99.90;;;;;;5041613;28;20144;-62
2022/03/09 05:49:49;;;;;;;0.00;0.00;;;7.90;99.90;;;;;;5058385;28;20379;-62
2022/03/09 05:52:15;;;;;;;0.00;0.00;;;8.00;99.90;;;;;;5062351;28;20036;-62
2022/03/09 05:54:41;;;;;;;;;;;8.00;99.90;;;;;;5055326;28;20032;-61
2022/03/09 05:57:06;;;;;;;0.00;0.00;;;8.00;99.90;;;;;;5051332;28;20286;-63
2022/03/09 05:59:32;;;;;;;0.00;0.00;;;8.00;99.90;;;;;;5056980;28;20022;-62
2022/03/09 06:01:58;;;;;;;0.00;0.00;;;8.10;99.90;;;;;;5054146;28;20040;-62
2022/03/09 06:04:23;;;;;;;0.00;0.00;;;8.10;99.90;;;;;;5055362;28;20104;-62
2022/03/09 06:06:49;;;;;;;0.00;0.00;;;8.10;99.90;;;;;;5064447;28;20052;-62
2022/03/09 06:09:15;;;;;;;0.00;0.00;;;8.10;99.90;;;;;;5067821;28;20032;-61
2022/03/09 06:11:42;;;;;;;0.00;0.00;;;8.20;99.90;;;;;;5070358;28;20033;-62
2022/03/09 06:14:08;;;;;;;0.00;0.00;;;8.20;99.90;;;;;;5066789;28;20029;-62
2022/03/09 06:16:34;;;;;;;0.00;0.00;;;8.30;99.90;;;;;;5067696;28;20044;-62
2022/03/09 06:19:00;;;;;;;0.00;0.00;;;8.30;99.90;;;;;;5055910;28;20034;-62
2022/03/09 06:21:26;;;;;;;0.00;0.00;;;8.30;99.90;;;;;;5070078;28;20029;-62
2022/03/09 06:23:52;;;;;;;0.00;0.00;;;8.30;99.90;;;;;;5061589;28;20089;-62
2022/03/09 06:26:17;;;;;;;0.00;0.00;;;8.30;99.90;;;;;;5070289;28;20506;-62
2022/03/09 06:28:43;;;;;;;0.00;0.00;;;8.40;99.90;;;;;;5056817;28;20021;-62
2022/03/09 06:31:09;;;;;;;0.00;0.00;;;8.60;99.90;;;;;;5060539;28;20386;-62
2022/03/09 06:33:34;;;;;;;0.00;0.00;;;8.60;99.90;;;;;;5060123;28;20121;-62
2022/03/09 06:36:01;;;;;;;0.00;0.00;;;8.60;99.90;;;;;;5043506;28;20052;-61
2022/03/09 06:38:27;;;;;;;0.00;0.00;;;8.60;99.90;;;;;;5048441;28;20025;-63
2022/03/09 06:40:53;;;;;;;0.00;0.00;;;8.50;99.90;;;;;;5030950;28;20037;-62
2022/03/09 06:43:18;;;;;;;0.00;0.00;;;8.50;99.90;;;;;;5045461;28;20049;-62
2022/03/09 06:45:44;;;;;;;0.00;0.00;;;8.60;99.90;;;;;;5038077;28;20041;-62
2022/03/09 06:48:10;;;;;;;0.00;0.00;;;8.60;99.90;;;;;;5032314;28;20022;-62
2022/03/09 06:50:36;;;;;;;0.00;0.00;;;8.70;99.90;;;;;;5031941;28;20093;-62
2022/03/09 06:53:02;;;;;;;0.00;0.00;;;8.70;99.90;;;;;;5047808;28;20029;-62
2022/03/09 06:55:27;;;;;;;0.00;0.00;;;8.80;99.90;;;;;;5048668;28;20087;-62
2022/03/09 06:57:54;;;;;;;0.00;0.00;;;8.70;99.90;;;;;;5049492;28;20037;-62
2022/03/09 07:00:19;;;;;;;;;;;8.80;99.90;;;;;;5047192;28;20028;-66
2022/03/09 07:02:46;;;;;;;0.00;0.00;;;8.80;99.90;;;;;;5030498;28;19909;-63
2022/03/09 07:05:12;;;;;;;0.00;0.00;;;8.80;99.90;;;;;;5047493;28;20080;-62
2022/03/09 07:07:39;;;;;;;0.00;0.00;;;8.80;99.90;;;;;;5043119;28;20032;-62
2022/03/09 07:10:10;;;;;;;0.00;0.00;;;8.70;99.90;;;;;;5043537;28;20092;-62
2022/03/09 07:12:38;;;;;;;0.00;0.00;;;8.70;99.90;;;;;;5045150;28;20033;-63
2022/03/09 07:15:04;;;;;;;0.00;0.00;;;8.70;99.90;;;;;;5044790;28;20026;-61
2022/03/09 07:17:30;;;;;;;;;;;8.70;99.90;;;;;;5043073;28;20017;-63
2022/03/09 07:19:55;;;;;;;0.00;0.00;;;8.70;99.90;;;;;;5044398;28;19909;-62
2022/03/09 07:22:21;;;;;;;0.00;0.00;;;8.70;99.90;;;;;;5044430;28;20017;-61
2022/03/09 07:24:47;;;;;;;0.00;0.00;;;8.80;99.90;;;;;;5045026;28;20039;-63
2022/03/09 07:27:12;;;;;;;0.00;0.00;;;8.80;99.90;;;;;;5046161;28;20038;-62
2022/03/09 07:29:38;;;;;;;0.00;0.00;;;8.80;99.90;;;;;;5043142;28;20041;-62
2022/03/09 07:32:05;;;;;;;0.00;0.00;;;8.90;99.90;;;;;;5044083;28;20030;-62
2022/03/09 07:34:31;;;;;;;0.00;0.00;;;9.00;99.90;;;;;;5053721;28;20053;-61
2022/03/09 07:36:57;;;;;;;0.00;0.00;;;8.90;99.90;;;;;;5052849;28;20048;-62
2022/03/09 07:39:30;;;;;;;0.00;0.00;;;8.80;99.90;;;;;;5045294;28;20057;-61
2022/03/09 07:41:56;;;;;;;0.00;0.00;;;8.90;99.90;;;;;;5053547;28;20037;-64
2022/03/09 07:44:23;;;;;;;0.00;0.00;;;8.90;99.90;;;;;;5064853;28;20021;-63
2022/03/09 07:46:49;;;;;;;0.00;0.00;;;8.90;99.90;;;;;;5052930;28;20037;-62
2022/03/09 07:49:16;;;;;;;0.00;0.00;;;8.90;99.90;;;;;;5051620;28;20013;-63
2022/03/09 07:51:42;;;;;;;0.00;0.00;;;9.00;99.90;;;;;;5057299;28;20009;-61
2022/03/09 07:54:08;;;;;;;;;;;9.10;99.90;;;;;;5050535;28;20021;-63
2022/03/09 07:56:35;;;;;;;0.00;0.00;;;9.10;99.90;;;;;;5033374;28;19925;-66
2022/03/09 07:59:02;;;;;;;0.00;0.00;;;9.20;99.90;;;;;;5034347;28;20078;-63
2022/03/09 08:01:28;;;;;;;0.00;0.00;;;9.20;99.90;;;;;;5048384;28;20113;-66
2022/03/09 08:03:54;;;;;;;0.00;0.00;;;9.20;99.90;;;;;;5037703;28;20025;-62
2022/03/09 08:06:20;;;;;;;0.00;0.00;;;9.20;99.90;;;;;;5056615;28;20014;-63
2022/03/09 08:08:46;;;;;;;0.00;0.00;;;9.30;99.90;;;;;;5047600;28;20021;-61
2022/03/09 08:11:13;;;;;;;0.00;0.00;;;9.30;99.90;;;;;;5053199;28;20033;-63
2022/03/09 08:13:39;;;;;;;0.00;0.00;;;9.40;99.90;;;;;;5067377;28;20040;-62
2022/03/09 08:16:05;;;;;;;0.00;0.00;;;9.40;99.90;;;;;;5046730;28;20034;-62
2022/03/09 08:18:31;;;;;;;0.00;0.00;;;9.60;99.90;;;;;;5054058;28;20057;-62
2022/03/09 08:20:57;;;;;;;0.00;0.00;;;9.70;99.90;;;;;;5065361;28;20368;-61
2022/03/09 08:23:23;;;;;;;0.00;0.00;;;9.80;99.90;;;;;;5023145;28;20033;-62
2022/03/09 08:25:49;;;;;;;0.00;0.00;;;9.80;99.90;;;;;;5052249;28;20069;-62
2022/03/09 08:28:16;;;;;;;0.00;0.00;;;9.80;99.90;;;;;;5045960;28;20498;-62
2022/03/09 08:30:41;;;;;;;0.00;0.00;;;9.80;99.90;;;;;;5051989;28;20112;-61
2022/03/09 08:33:08;;;;;;;0.00;0.00;;;9.90;99.90;;;;;;5053342;28;20037;-62
2022/03/09 08:35:33;;;;;;;0.00;0.00;;;9.90;99.90;;;;;;5028780;28;20037;-63
2022/03/09 08:37:59;;;;;;;0.00;0.00;;;10.00;99.90;;;;;;5026955;28;20033;-63
2022/03/09 08:40:25;;;;;;;0.00;0.00;;;10.00;99.90;;;;;;5051334;28;20038;-63
2022/03/09 08:42:51;;;;;;;0.00;0.00;;;10.10;99.90;;;;;;5049921;28;20036;-64
2022/03/09 08:45:16;;;;;;;0.00;0.00;;;10.10;99.90;;;;;;5036688;28;20056;-62
2022/03/09 08:47:42;;;;;;;0.00;0.00;;;10.20;99.90;;;;;;5052271;28;20029;-62
2022/03/09 08:50:09;;;;;;;0.00;0.00;;;10.30;99.90;;;;;;5028844;28;20053;-62
2022/03/09 08:52:36;;;;;;;0.00;0.00;;;10.30;99.90;;;;;;5025531;28;20025;-62
2022/03/09 08:55:02;;;;;;;0.00;0.00;;;10.40;99.90;;;;;;5046865;28;20033;-62
2022/03/09 08:57:29;;;;;;;0.00;0.00;;;10.50;99.90;;;;;;5049252;28;20055;-62
2022/03/09 08:59:57;;;;;;;0.00;0.00;;;10.50;99.90;;;;;;5049534;28;20053;-63
2022/03/09 09:02:29;;;;;;;0.00;0.00;;;10.40;99.90;;;;;;5032236;28;20403;-63
2022/03/09 09:04:55;;;;;;;0.00;0.00;;;10.30;99.90;;;;;;5032946;28;20030;-62
2022/03/09 09:07:21;;;;;;;0.00;0.00;;;10.30;99.90;;;;;;5051507;28;20034;-62
2022/03/09 09:09:47;;;;;;;0.00;0.00;;;10.40;99.90;;;;;;5052824;28;20044;-64
2022/03/09 09:12:13;;;;;;;0.00;0.00;;;10.40;99.90;;;;;;5052774;28;20026;-63
2022/03/09 09:14:38;;;;;;;0.00;0.00;;;10.40;99.90;;;;;;5028614;28;20040;-62
2022/03/09 09:17:05;;;;;;;0.00;0.00;;;10.40;99.90;;;;;;5038822;28;20024;-63
2022/03/09 09:19:31;;;;;;;;;;;10.60;99.90;;;;;;5053617;28;20037;-63
2022/03/09 09:21:57;;;;;;;0.00;0.00;;;10.80;99.90;;;;;;5048341;28;19920;-62
2022/03/09 09:24:22;;;;;;;0.00;0.00;;;10.90;99.90;;;;;;5049497;28;20021;-62
2022/03/09 09:26:48;;;;;;;0.00;0.00;;;11.00;99.90;;;;;;5054079;28;20116;-62
2022/03/09 09:29:15;;;;;;;0.00;0.00;;;11.10;99.90;;;;;;5035994;28;20060;-62
2022/03/09 09:31:41;;;;;;;0.00;0.00;;;11.10;99.90;;;;;;5054799;28;20041;-62
2022/03/09 09:34:07;;;;;;;0.00;0.00;;;11.10;99.90;;;;;;5056375;28;20599;-63
2022/03/09 09:36:34;;;;;;;0.00;0.00;;;11.10;99.90;;;;;;5074907;28;20474;-62
2022/03/09 09:39:00;;;;;;;0.00;0.00;;;11.20;99.90;;;;;;5075511;28;20048;-62
2022/03/09 09:41:27;;;;;;;0.00;0.00;;;11.10;99.90;;;;;;5071881;28;20028;-62
2022/03/09 09:43:53;;;;;;;0.00;0.00;;;11.10;99.90;;;;;;5074645;28;20100;-65
2022/03/09 09:46:21;;;;;;;0.00;0.00;;;11.10;99.90;;;;;;5062615;28;20029;-63
2022/03/09 09:48:47;;;;;;;0.00;0.00;;;11.20;99.90;;;;;;5072367;28;20028;-63
2022/03/09 09:51:14;;;;;;;0.00;0.00;;;11.40;99.90;;;;;;5068017;28;20025;-64
2022/03/09 09:53:44;;;;;;;0.00;0.00;;;11.30;99.90;;;;;;5073369;28;20043;-64
2022/03/09 09:56:10;;;;;;;0.00;0.00;;;11.30;99.90;;;;;;5074694;28;20048;-64
2022/03/09 09:58:37;;;;;;;0.00;0.00;;;11.30;99.90;;;;;;5072325;28;20052;-63
2022/03/09 10:01:03;;;;;;;0.00;0.00;;;11.30;99.90;;;;;;5073537;28;20029;-62
2022/03/09 10:03:29;;;;;;;0.00;0.00;;;11.20;99.90;;;;;;5075305;28;20055;-63
2022/03/09 10:05:54;;;;;;;0.00;0.00;;;11.20;99.90;;;;;;5074135;28;20033;-62
2022/03/09 10:08:20;;;;;;;0.00;0.00;;;11.10;99.90;;;;;;5067500;28;20029;-63
2022/03/09 10:11:00;;;;;;;0.00;0.00;;;11.10;99.90;;;;;;5071462;28;20043;-63
2022/03/09 10:13:27;;;;;;;0.00;0.00;;;11.30;99.90;;;;;;5075274;28;20101;-63
2022/03/09 10:16:15;;;;;;;0.00;0.00;;;11.60;99.90;;;;;;5073275;28;20052;-63
2022/03/09 10:18:48;;;;;;;0.00;0.00;;;11.60;99.90;;;;;;5065213;28;20390;-63
2022/03/09 10:21:20;;;;;;;0.00;0.00;;;11.60;99.90;;;;;;5066816;28;20025;-65
2022/03/09 10:24:01;;;;;;;0.00;0.00;;;11.70;99.90;;;;;;5072293;28;20036;-62
2022/03/09 10:26:38;;;;;;;0.00;0.00;;;11.80;99.90;;;;;;5062887;28;20044;-66
2022/03/09 10:29:13;;;;;;;0.00;0.00;;;11.80;99.90;;;;;;5067719;28;20028;-63
2022/03/09 10:31:42;;;;;;;0.00;0.00;;;11.70;99.90;;;;;;5070661;28;20021;-63
2022/03/09 10:34:12;;;;;;;0.00;0.00;;;11.60;99.90;;;;;;5053732;28;20070;-61
2022/03/09 10:36:53;;;;;;;0.00;0.00;;;11.60;99.90;;;;;;5033830;28;20104;-63
2022/03/09 10:39:19;;;;;;;0.00;0.00;;;11.70;99.90;;;;;;5050794;28;20028;-63
2022/03/09 10:41:45;;;;;;;0.00;0.00;;;11.80;99.90;;;;;;5034810;28;20090;-62
2022/03/09 10:44:13;;;;;;;0.00;0.00;;;12.00;99.90;;;;;;5033159;28;20033;-62
2022/03/09 10:46:49;;;;;;;0.00;0.00;;;12.20;99.90;;;;;;5054637;28;20086;-63
2022/03/09 10:49:19;;;;;;;0.00;0.00;;;12.00;99.90;;;;;;5053457;28;20160;-64
2022/03/09 10:51:50;;;;;;;0.00;0.00;;;12.00;99.90;;;;;;5053306;28;20067;-62
2022/03/09 10:54:26;;;;;;;0.00;0.00;;;12.00;99.90;;;;;;5048030;28;20568;-64
2022/03/09 10:57:10;;;;;;;0.00;0.00;;;11.80;99.90;;;;;;5053537;28;20033;-63
2022/03/09 10:59:48;;;;;;;0.00;0.00;;;11.70;99.90;;;;;;5052340;28;20037;-63
2022/03/09 11:02:19;;;;;;;0.00;0.00;;;11.70;99.90;;;;;;5047178;28;20029;-64
2022/03/09 11:05:09;;;;;;;0.00;0.00;;;11.70;99.90;;;;;;5045147;28;20061;-62
2022/03/09 11:07:36;;;;;;;0.00;0.00;;;11.60;99.90;;;;;;5048913;28;20056;-63
2022/03/09 11:10:06;;;;;;;0.00;0.00;;;11.70;99.90;;;;;;5054258;28;20040;-62
2022/03/09 11:12:32;;;;;;;0.00;0.00;;;11.70;99.90;;;;;;5048109;28;20097;-63
2022/03/09 11:14:58;;;;;;;;;;;11.80;99.90;;;;;;5040014;28;20018;-63
2022/03/09 11:17:24;;;;;;;0.00;0.00;;;11.80;99.90;;;;;;5051397;28;19990;-63
2022/03/09 11:19:50;;;;;;;;;;;11.90;99.90;;;;;;5050116;28;20041;-63
2022/03/09 11:22:16;;;;;;;0.00;0.00;;;12.10;99.90;;;;;;5051371;28;19909;-63
2022/03/09 11:24:43;;;;;;;0.00;0.00;;;12.00;99.90;;;;;;5054410;28;20013;-62
2022/03/09 11:27:10;;;;;;;0.00;0.00;;;11.80;99.90;;;;;;5052869;28;20562;-63
2022/03/09 11:29:37;;;;;;;0.00;0.00;;;12.00;99.90;;;;;;5043731;28;20042;-62
2022/03/09 11:32:08;;;;;;;0.00;0.00;;;12.10;99.90;;;;;;5046633;28;20033;-63
2022/03/09 11:34:45;;;;;;;0.00;0.00;;;11.90;99.90;;;;;;5047601;28;20073;-62
2022/03/09 11:37:16;;;;;;;0.00;0.00;;;11.70;99.90;;;;;;5051054;28;20033;-63
2022/03/09 11:39:47;;;;;;;0.00;0.00;;;11.70;99.90;;;;;;5052434;28;20034;-63
2022/03/09 11:42:20;;;;;;;0.00;0.00;;;11.80;99.90;;;;;;5050819;28;20048;-63
2022/03/09 11:45:06;;;;;;;0.00;0.00;;;11.80;99.90;;;;;;5038452;28;20093;-63
2022/03/09 11:47:55;;;;;;;0.00;0.00;;;11.80;99.90;;;;;;5037623;28;20038;-63
2022/03/09 11:50:21;;;;;;;0.00;0.00;;;11.90;99.90;;;;;;5050271;28;20087;-63
2022/03/09 11:52:54;;;;;;;0.00;0.00;;;11.80;99.90;;;;;;5048592;28;20025;-63
2022/03/09 11:55:20;;;;;;;0.00;0.00;;;11.80;99.90;;;;;;5037315;28;20026;-63
2022/03/09 11:57:47;;;;;;;0.00;0.00;;;11.90;99.90;;;;;;5031784;28;20025;-63
2022/03/09 12:00:20;;;;;;;0.00;0.00;;;12.00;99.90;;;;;;5036125;28;20108;-64
2022/03/09 12:02:54;;;;;;;0.00;0.00;;;12.20;99.90;;;;;;5043784;28;20076;-63
2022/03/09 12:05:41;;;;;;;0.00;0.00;;;12.20;99.90;;;;;;5041283;28;20093;-63
2022/03/09 12:08:14;;;;;;;0.00;0.00;;;12.10;99.90;;;;;;5047553;28;20025;-63
2022/03/09 12:10:56;;;;;;;0.00;0.00;;;12.30;99.90;;;;;;5051938;28;20052;-62
2022/03/09 12:13:22;;;;;;;0.00;0.00;;;12.70;99.90;;;;;;5039516;28;20029;-65
2022/03/09 12:16:12;;;;;;;0.00;0.00;;;12.90;99.90;;;;;;5029383;28;20034;-63
2022/03/09 12:19:07;;;;;;;0.00;0.00;;;13.00;99.90;;;;;;5049331;28;20042;-63
2022/03/09 12:21:38;;;;;;;0.00;0.00;;;12.90;99.90;;;;;;5020213;28;20034;-63
2022/03/09 12:24:20;;;;;;;0.00;0.00;;;13.10;99.90;;;;;;5041968;28;20411;-63
2022/03/09 12:26:50;;;;;;;0.00;0.00;;;13.20;99.90;;;;;;5033970;28;20032;-65
2022/03/09 12:29:21;;;;;;;0.00;0.00;;;13.00;99.90;;;;;;5025290;28;20051;-64
2022/03/09 12:32:02;;;;;;;0.00;0.00;;;13.00;99.90;;;;;;5046535;28;20387;-63
2022/03/09 12:34:32;;;;;;;0.00;0.00;;;12.90;99.90;;;;;;5046892;28;20049;-63
2022/03/09 12:36:58;;;;;;;0.00;0.00;;;12.80;99.90;;;;;;5040574;28;20068;-63
2022/03/09 12:39:24;;;;;;;0.00;0.00;;;12.90;99.90;;;;;;5045150;28;20025;-63
2022/03/09 12:41:58;;;;;;;0.00;0.00;;;12.90;99.90;;;;;;5051168;28;20028;-63
2022/03/09 12:44:27;;;;;;;0.00;0.00;;;12.70;99.90;;;;;;5043580;28;20060;-63
2022/03/09 12:46:53;;;;;;;0.00;0.00;;;12.80;99.90;;;;;;5024869;28;20053;-63
2022/03/09 12:49:30;;;;;;;;;;;12.80;99.90;;;;;;5035894;28;20024;-63
2022/03/09 12:52:12;;;;;;;0.00;0.00;;;12.80;99.90;;;;;;5046288;28;19996;-63
2022/03/09 12:54:58;;;;;;;0.00;0.00;;;13.00;99.90;;;;;;5049424;28;20124;-63
2022/03/09 12:57:28;;;;;;;0.00;0.00;;;13.20;99.90;;;;;;5053571;28;20032;-62
2022/03/09 12:59:57;;;;;;;0.00;0.00;;;13.20;99.90;;;;;;5034391;28;20040;-63